Time;durP1;ratioP1;P1;durP2;ratioP2;P2;SDS_P1;SDS_P2;PMS_P1;PMS_P2;Temp;Humidity;BMP_temperature;BMP_pressure;BME280_temperature;BME280_humidity;BME280_pressure;Samples;Min_cycle;Max_cycle;Signal;HPM_P1;HPM_P2
2022/05/17 00:01:01;;;;;;;6.63;2.95;;;;;;;19.83;56.04;99887.47;3121214;28;20049;-74
2022/05/17 00:02:33;;;;;;;5.57;3.40;;;;;;;19.83;56.07;99887.47;3121342;28;20049;-73
2022/05/17 00:04:05;;;;;;;5.45;3.83;;;;;;;19.40;56.09;99814.34;3121041;28;20107;-75
2022/05/17 00:05:38;;;;;;;8.13;2.92;;;;;;;19.81;56.26;99882.28;3121465;28;20431;-75
2022/05/17 00:07:11;;;;;;;6.75;3.50;;;;;;;19.81;56.25;99882.28;3121104;28;20057;-74
2022/05/17 00:08:45;;;;;;;7.22;4.00;;;;;;;19.48;56.27;99828.59;3121227;28;20115;-73
2022/05/17 00:10:17;;;;;;;11.13;3.47;;;;;;;19.80;56.29;99875.34;3121239;28;20045;-74
2022/05/17 00:11:49;;;;;;;8.88;3.65;;;;;;;19.62;56.53;99842.50;3121236;28;20107;-73
2022/05/17 00:13:23;;;;;;;5.60;3.40;;;;;;;19.77;56.49;99867.69;3121216;28;20396;-73
2022/05/17 00:14:55;;;;;;;8.70;4.15;;;;;;;19.75;56.37;99873.06;3121501;28;20510;-74
2022/05/17 00:16:27;;;;;;;5.97;3.55;;;;;;;19.75;56.70;99875.72;3120574;28;20050;-73
2022/05/17 00:17:59;;;;;;;7.78;3.75;;;;;;;19.73;56.64;99867.09;3121101;28;20050;-73
2022/05/17 00:19:32;;;;;;;7.78;3.17;;;;;;;19.67;56.63;99857.03;3121088;28;20111;-73
2022/05/17 00:21:05;;;;;;;6.20;3.20;;;;;;;19.74;56.79;99866.13;3121200;28;20075;-74
2022/05/17 00:22:38;;;;;;;6.50;3.30;;;;;;;19.70;56.84;99861.19;3121216;28;20484;-74
2022/05/17 00:24:10;;;;;;;4.65;3.58;;;;;;;19.71;57.10;99871.66;3119438;28;20049;-72
2022/05/17 00:25:47;;;;;;;5.35;3.45;;;;;;;19.42;57.23;99822.97;3116406;28;20053;-71
2022/05/17 00:27:19;;;;;;;7.80;3.70;;;;;;;19.63;57.38;99860.84;3121123;28;20053;-74
2022/05/17 00:28:51;;;;;;;6.03;3.65;;;;;;;19.67;57.38;99864.09;3121315;28;20463;-74
2022/05/17 00:30:23;;;;;;;8.68;3.63;;;;;;;19.59;57.77;99862.06;3114628;28;20049;-73
2022/05/17 00:31:55;;;;;;;10.40;3.70;;;;;;;19.62;57.67;99869.75;3120909;28;20119;-74
2022/05/17 00:33:27;;;;;;;8.02;4.20;;;;;;;19.60;57.79;99869.03;3121497;28;20107;-72
2022/05/17 00:34:59;;;;;;;10.85;4.93;;;;;;;19.53;58.00;99866.03;3120713;28;20052;-73
2022/05/17 00:36:32;;;;;;;7.72;5.47;;;;;;;19.33;58.48;99853.63;3120631;28;20053;-74
2022/05/17 00:38:04;;;;;;;14.30;4.80;;;;;;;19.23;58.75;99852.69;3122609;28;20052;-71
2022/05/17 00:39:36;;;;;;;8.10;5.43;;;;;;;19.32;58.95;99871.25;3121091;28;20130;-74
2022/05/17 00:41:08;;;;;;;11.00;5.78;;;;;;;19.21;59.38;99866.00;3120916;28;20564;-72
2022/05/17 00:42:39;;;;;;;10.15;5.22;;;;;;;19.20;59.63;99871.41;3121037;28;20111;-74
2022/05/17 00:46:05;;;;;;;10.85;6.90;;;;;;;19.07;59.84;99872.38;3121006;28;20137;-73
2022/05/17 00:47:43;;;;;;;10.18;5.35;;;;;;;19.06;59.94;99873.34;3120863;28;20182;-73
2022/05/17 00:49:23;;;;;;;13.07;6.45;;;;;;;19.04;59.95;99877.06;3115411;28;20046;-74
2022/05/17 00:50:56;;;;;;;9.98;5.63;;;;;;;18.95;60.04;99869.88;3120921;28;20382;-73
2022/05/17 00:52:34;;;;;;;9.63;5.82;;;;;;;18.85;60.16;99870.59;3121848;28;20041;-73
2022/05/17 00:54:10;;;;;;;10.15;6.72;;;;;;;18.73;60.32;99863.66;3120303;28;20084;-71
2022/05/17 00:55:44;;;;;;;10.73;6.38;;;;;;;18.70;60.39;99874.41;3120550;28;20496;-71
2022/05/17 00:57:24;;;;;;;9.77;6.13;;;;;;;18.65;60.22;99869.47;3120813;28;20069;-72
2022/05/17 00:59:01;;;;;;;7.75;5.95;;;;;;;18.27;59.85;99817.06;3120564;28;20479;-72
2022/05/17 01:00:37;;;;;;;8.10;5.50;;;;;;;18.30;59.75;99823.91;3120752;28;20099;-72
2022/05/17 01:02:10;;;;;;;9.80;6.47;;;;;;;18.51;60.19;99853.88;3120556;28;20060;-71
2022/05/17 01:03:44;;;;;;;;;;;;;;;18.51;60.00;99869.69;3118290;28;20045;-72
2022/05/17 01:05:19;;;;;;;9.23;5.80;;;;;;;18.46;60.06;99863.09;3118876;28;19935;-73
2022/05/17 01:06:54;;;;;;;9.43;5.30;;;;;;;18.48;59.75;99858.56;3119963;28;20077;-72
2022/05/17 01:08:29;;;;;;;10.98;5.85;;;;;;;18.49;59.43;99862.91;3120460;28;20111;-72
2022/05/17 01:10:01;;;;;;;7.22;5.40;;;;;;;18.51;59.38;99864.44;3120371;28;20053;-72
2022/05/17 01:11:33;;;;;;;6.72;5.40;;;;;;;18.26;59.00;99823.31;3120239;28;20482;-72
2022/05/17 01:15:00;;;;;;;6.95;5.32;;;;;;;18.40;58.85;99856.53;3120711;28;20053;-72
2022/05/17 01:16:32;;;;;;;7.45;5.45;;;;;;;18.36;58.80;99848.00;3120633;28;20055;-72
2022/05/17 01:18:04;;;;;;;7.75;4.97;;;;;;;18.35;58.92;99854.22;3114539;28;20053;-72
2022/05/17 01:19:39;;;;;;;7.45;4.93;;;;;;;18.41;58.62;99856.41;3120321;28;20057;-72
2022/05/17 01:21:13;;;;;;;14.38;5.43;;;;;;;18.36;58.73;99847.16;3126418;28;20049;-72
2022/05/17 01:22:45;;;;;;;8.00;5.43;;;;;;;18.44;58.86;99854.50;3120149;28;20045;-73
2022/05/17 01:24:19;;;;;;;8.98;5.38;;;;;;;18.46;58.86;99860.47;3120509;28;20072;-72
2022/05/17 01:25:51;;;;;;;6.68;5.82;;;;;;;18.48;58.91;99856.75;3120413;28;20057;-73
2022/05/17 01:27:28;;;;;;;7.53;5.80;;;;;;;18.49;58.94;99849.72;3120331;28;20512;-73
2022/05/17 01:29:00;;;;;;;8.23;6.47;;;;;;;18.47;59.10;99848.97;3120583;28;20053;-73
2022/05/17 01:30:33;;;;;;;11.20;6.40;;;;;;;18.44;59.43;99847.41;3120671;28;20099;-73
2022/05/17 01:32:05;;;;;;;7.32;5.93;;;;;;;18.41;59.65;99852.94;3120644;28;20107;-73
2022/05/17 01:33:40;;;;;;;14.30;7.50;;;;;;;18.25;59.96;99826.03;3120636;28;20507;-73
2022/05/17 01:35:12;;;;;;;13.40;6.60;;;;;;;18.27;60.36;99839.94;3125470;28;20053;-74
2022/05/17 01:36:45;;;;;;;9.93;7.28;;;;;;;18.28;60.46;99852.16;3120584;28;20057;-74
2022/05/17 01:38:17;;;;;;;10.50;6.70;;;;;;;18.23;60.77;99849.91;3120396;28;20046;-74
2022/05/17 01:39:49;;;;;;;9.02;6.50;;;;;;;18.21;60.85;99851.81;3120215;28;20593;-72
2022/05/17 01:41:21;;;;;;;9.35;6.35;;;;;;;17.97;60.85;99814.97;3120677;28;20056;-73
2022/05/17 01:42:53;;;;;;;13.23;7.07;;;;;;;18.19;60.96;99848.47;3120371;28;20176;-73
2022/05/17 01:44:24;;;;;;;10.73;7.40;;;;;;;18.05;61.14;99831.06;3120389;28;20045;-73
2022/05/17 01:45:56;;;;;;;10.65;6.57;;;;;;;18.01;60.86;99808.50;3120215;28;20063;-73
2022/05/17 01:47:30;;;;;;;12.57;6.90;;;;;;;18.22;61.11;99836.81;3120401;28;20041;-73
2022/05/17 01:49:02;;;;;;;12.20;6.85;;;;;;;18.23;61.12;99839.34;3124267;28;20104;-72
2022/05/17 01:50:35;;;;;;;9.00;6.63;;;;;;;17.97;61.13;99799.16;3120455;28;20763;-73
2022/05/17 01:52:09;;;;;;;;;;;;;;;18.15;61.27;99836.47;3120715;28;20479;-72
2022/05/17 01:53:41;;;;;;;11.73;7.23;;;;;;;18.08;61.56;99835.25;3120268;28;19925;-71
2022/05/17 01:55:13;;;;;;;10.43;7.47;;;;;;;17.93;61.48;99816.19;3120457;28;20052;-71
2022/05/17 01:56:45;;;;;;;10.98;6.90;;;;;;;18.08;61.64;99830.81;3120407;28;20431;-71
2022/05/17 01:58:17;;;;;;;9.40;6.63;;;;;;;18.12;61.41;99834.06;3116074;28;20486;-71
2022/05/17 01:59:49;;;;;;;9.63;7.22;;;;;;;18.13;61.18;99831.31;3119919;28;20050;-71
2022/05/17 02:01:21;;;;;;;10.60;7.10;;;;;;;18.17;61.17;99834.56;3120332;28;20056;-71
2022/05/17 02:02:53;;;;;;;10.93;7.03;;;;;;;18.22;61.13;99832.41;3120308;28;20526;-71
2022/05/17 02:04:25;;;;;;;13.90;7.28;;;;;;;17.99;61.33;99794.63;3115752;28;20504;-71
2022/05/17 02:05:57;;;;;;;13.05;7.68;;;;;;;18.18;61.21;99820.41;3120144;28;20546;-71
2022/05/17 02:07:30;;;;;;;12.23;8.38;;;;;;;18.18;61.36;99834.41;3120514;28;20053;-72
2022/05/17 02:09:02;;;;;;;14.52;7.97;;;;;;;18.03;61.60;99808.41;3119929;28;20131;-71
2022/05/17 02:10:34;;;;;;;16.17;8.27;;;;;;;18.06;61.82;99826.63;3120125;28;20202;-71
2022/05/17 02:12:07;;;;;;;14.80;8.63;;;;;;;18.05;61.67;99830.22;3120189;28;20076;-73
2022/05/17 02:13:41;;;;;;;14.98;7.57;;;;;;;18.05;61.72;99825.78;3120449;28;20098;-73
2022/05/17 02:15:14;;;;;;;12.05;7.90;;;;;;;17.95;61.67;99808.97;3120156;28;20060;-73
2022/05/17 02:16:46;;;;;;;19.23;8.02;;;;;;;18.08;61.58;99827.34;3122292;28;20065;-73
2022/05/17 02:18:18;;;;;;;11.65;7.50;;;;;;;18.09;61.55;99824.59;3122613;28;20049;-72
2022/05/17 02:19:49;;;;;;;16.80;8.18;;;;;;;18.04;61.58;99817.97;3122647;28;20503;-72
2022/05/17 02:21:21;;;;;;;11.15;7.75;;;;;;;18.10;61.50;99835.97;3122547;28;20045;-72
2022/05/17 02:22:54;;;;;;;10.25;7.85;;;;;;;18.03;61.41;99827.69;3122557;28;20049;-72
2022/05/17 02:24:27;;;;;;;12.75;7.57;;;;;;;18.13;61.37;99841.00;3122601;28;20456;-74
2022/05/17 02:25:59;;;;;;;16.23;9.07;;;;;;;18.13;61.57;99836.59;3122459;28;20049;-73
2022/05/17 02:27:32;;;;;;;13.18;8.35;;;;;;;18.08;61.47;99830.00;3119639;28;20486;-73
2022/05/17 02:29:04;;;;;;;12.90;9.40;;;;;;;18.15;61.46;99833.81;3122512;28;20069;-73
2022/05/17 02:30:36;;;;;;;16.50;9.25;;;;;;;18.15;61.56;99828.56;3122426;28;20063;-73
2022/05/17 02:32:09;;;;;;;11.45;8.98;;;;;;;18.16;61.68;99830.22;3122466;28;20085;-73
2022/05/17 02:33:40;;;;;;;17.83;9.70;;;;;;;18.14;61.63;99833.00;3122566;28;20119;-71
2022/05/17 02:35:14;;;;;;;14.38;9.75;;;;;;;18.13;61.48;99826.06;3122510;28;20318;-73
2022/05/17 02:36:45;;;;;;;13.70;10.27;;;;;;;18.13;61.77;99827.81;3122288;28;20046;-72
2022/05/17 02:38:19;;;;;;;15.18;10.98;;;;;;;18.13;61.77;99825.19;3122352;28;20111;-72
2022/05/17 02:39:50;;;;;;;13.73;9.75;;;;;;;18.12;61.83;99824.34;3122442;28;20049;-72
2022/05/17 02:41:23;;;;;;;15.68;10.05;;;;;;;18.13;61.91;99823.41;3122051;28;20049;-73
2022/05/17 02:42:55;;;;;;;12.75;10.02;;;;;;;18.07;61.70;99810.72;3122415;28;20049;-72
2022/05/17 02:44:28;;;;;;;15.43;10.65;;;;;;;18.13;61.79;99823.41;3122032;28;20137;-72
2022/05/17 02:46:00;;;;;;;16.13;10.70;;;;;;;17.83;61.85;99765.97;3122215;28;20049;-72
2022/05/17 02:47:32;;;;;;;16.30;11.07;;;;;;;18.10;61.87;99823.66;3122332;28;20053;-73
2022/05/17 02:49:07;;;;;;;14.60;10.30;;;;;;;17.76;61.68;99772.63;3122432;28;20049;-72
2022/05/17 02:50:39;;;;;;;18.38;10.50;;;;;;;18.07;62.00;99823.88;3121991;28;20474;-72
2022/05/17 02:52:11;;;;;;;19.63;11.23;;;;;;;17.99;61.83;99814.88;3121962;28;20503;-72
2022/05/17 02:53:44;;;;;;;14.82;10.00;;;;;;;18.08;61.71;99830.00;3122258;28;20061;-72
2022/05/17 02:55:16;;;;;;;15.25;10.52;;;;;;;18.09;61.95;99839.56;3122153;28;20108;-73
2022/05/17 02:56:48;;;;;;;15.25;10.10;;;;;;;17.91;61.69;99802.28;3121964;28;20519;-73
2022/05/17 02:58:20;;;;;;;18.33;10.10;;;;;;;18.13;61.81;99833.09;3117871;28;20054;-73
2022/05/17 02:59:52;;;;;;;13.13;9.73;;;;;;;18.08;61.79;99830.00;3127807;28;20071;-72
2022/05/17 03:01:24;;;;;;;22.90;10.15;;;;;;;17.76;61.99;99783.16;3121968;28;20621;-73
2022/05/17 03:02:57;;;;;;;13.43;9.88;;;;;;;17.98;61.97;99826.34;3122029;28;20120;-73
2022/05/17 03:04:30;;;;;;;14.70;9.63;;;;;;;17.99;62.02;99831.53;3117189;28;20051;-71
2022/05/17 03:06:00;;;;;;;17.05;9.93;;;;;;;17.93;62.16;99837.25;3121122;28;20490;-72
2022/05/17 03:07:32;;;;;;;17.95;9.95;;;;;;;17.87;61.91;99822.75;3122031;28;20146;-72
2022/05/17 03:09:06;;;;;;;10.80;8.77;;;;;;;17.87;62.12;99838.56;3121648;28;20084;-72
2022/05/17 03:10:38;;;;;;;11.88;9.13;;;;;;;17.85;62.27;99842.25;3121895;28;20164;-72
2022/05/17 03:12:11;;;;;;;11.57;9.52;;;;;;;17.85;62.09;99840.44;3121825;28;20495;-72
2022/05/17 03:13:43;;;;;;;16.23;9.15;;;;;;;17.84;62.16;99841.41;3127365;28;20061;-72
2022/05/17 03:15:20;;;;;;;11.68;9.00;;;;;;;17.86;61.97;99843.91;3122002;28;20475;-72
2022/05/17 03:16:52;;;;;;;12.05;8.25;;;;;;;17.71;62.04;99825.63;3121967;28;20053;-72
2022/05/17 03:18:24;;;;;;;13.00;8.45;;;;;;;17.78;61.88;99841.88;3121877;28;20068;-70
2022/05/17 03:19:56;;;;;;;14.00;9.32;;;;;;;17.76;61.69;99848.19;3122073;28;20057;-71
2022/05/17 03:21:28;;;;;;;11.38;8.57;;;;;;;17.67;61.65;99834.72;3121222;28;20045;-70
2022/05/17 03:23:00;;;;;;;12.73;8.60;;;;;;;17.48;61.75;99805.44;3121945;28;20058;-71
2022/05/17 03:24:32;;;;;;;11.77;8.65;;;;;;;17.77;61.59;99849.84;3121972;28;20053;-71
2022/05/17 03:26:04;;;;;;;17.45;8.50;;;;;;;17.77;61.53;99848.03;3121538;28;20080;-73
2022/05/17 03:27:35;;;;;;;10.57;8.20;;;;;;;17.74;61.77;99851.75;3121282;28;20466;-72
2022/05/17 03:29:07;;;;;;;10.65;8.38;;;;;;;17.72;61.76;99842.31;3121769;28;20053;-73
2022/05/17 03:30:39;;;;;;;11.60;8.23;;;;;;;17.70;61.76;99842.41;3121678;28;20613;-71
2022/05/17 03:32:11;;;;;;;10.63;7.80;;;;;;;17.72;61.73;99850.19;3121777;28;20119;-72
2022/05/17 03:33:43;;;;;;;12.57;8.85;;;;;;;17.74;61.59;99857.00;3121549;28;20060;-72
2022/05/17 03:35:15;;;;;;;15.73;7.80;;;;;;;17.70;61.61;99860.84;3121601;28;20057;-71
2022/05/17 03:36:47;;;;;;;9.85;8.32;;;;;;;17.68;61.69;99854.00;3122010;28;20489;-72
2022/05/17 03:38:18;;;;;;;19.15;8.07;;;;;;;17.68;61.51;99854.00;3121373;28;20045;-72
2022/05/17 03:39:52;;;;;;;14.32;8.40;;;;;;;17.60;61.70;99851.09;3121549;28;20127;-71
2022/05/17 03:41:24;;;;;;;14.68;8.75;;;;;;;17.64;61.67;99857.81;3125323;28;20045;-71
2022/05/17 03:42:56;;;;;;;12.75;8.68;;;;;;;17.57;61.81;99853.94;3121510;28;20049;-72
2022/05/17 03:44:28;;;;;;;13.70;9.05;;;;;;;17.59;61.72;99854.69;3121321;28;20139;-73
2022/05/17 03:46:00;;;;;;;14.93;8.90;;;;;;;17.63;61.65;99853.50;3121474;28;20208;-73
2022/05/17 03:47:33;;;;;;;10.68;8.10;;;;;;;17.41;61.82;99831.38;3121629;28;20088;-72
2022/05/17 03:49:05;;;;;;;14.50;8.05;;;;;;;17.61;61.93;99860.69;3121935;28;20054;-72
2022/05/17 03:50:37;;;;;;;10.55;8.60;;;;;;;17.60;62.06;99862.47;3121574;28;20057;-72
2022/05/17 03:52:09;;;;;;;13.93;9.18;;;;;;;17.60;61.95;99867.75;3120892;28;20415;-70
2022/05/17 03:53:42;;;;;;;13.40;8.48;;;;;;;17.53;61.90;99861.22;3121796;28;20050;-72
2022/05/17 03:55:14;;;;;;;11.85;8.13;;;;;;;17.47;61.62;99845.88;3121345;28;20045;-72
2022/05/17 03:56:47;;;;;;;11.57;7.85;;;;;;;17.53;61.71;99858.59;3123437;28;20127;-73
2022/05/17 03:58:19;;;;;;;14.90;8.88;;;;;;;17.37;61.84;99829.09;3118096;28;20050;-73
2022/05/17 03:59:50;;;;;;;15.43;9.13;;;;;;;17.59;61.72;99865.22;3121345;28;20112;-73
2022/05/17 04:01:22;;;;;;;11.75;8.32;;;;;;;17.56;61.84;99863.63;3121465;28;20054;-75
2022/05/17 04:02:54;;;;;;;14.43;9.32;;;;;;;17.47;61.99;99854.63;3121493;28;20095;-74
2022/05/17 04:04:26;;;;;;;12.27;9.43;;;;;;;17.14;62.26;99807.06;3121263;28;20055;-74
2022/05/17 04:05:59;;;;;;;14.13;8.93;;;;;;;17.49;62.00;99865.06;3121597;28;20049;-75
2022/05/17 04:07:30;;;;;;;16.40;8.60;;;;;;;17.54;62.16;99867.34;3121522;28;20164;-73
2022/05/17 04:09:02;;;;;;;12.38;8.50;;;;;;;17.36;62.17;99838.78;3120989;28;20136;-75
2022/05/17 04:10:36;;;;;;;12.82;9.02;;;;;;;17.58;62.01;99861.75;3121554;28;20059;-75
2022/05/17 04:12:09;;;;;;;13.63;8.93;;;;;;;17.59;62.19;99865.22;3121336;28;20057;-75
2022/05/17 04:13:40;;;;;;;17.83;9.45;;;;;;;17.54;62.17;99867.34;3114874;28;20123;-72
2022/05/17 04:15:15;;;;;;;20.13;9.73;;;;;;;17.54;62.06;99860.28;3121505;28;20053;-72
2022/05/17 04:16:46;;;;;;;10.80;8.50;;;;;;;17.56;61.92;99863.63;3121096;28;20053;-72
2022/05/17 04:18:18;;;;;;;13.57;8.48;;;;;;;17.56;62.03;99860.16;3121234;28;20049;-72
2022/05/17 04:19:50;;;;;;;14.60;9.05;;;;;;;17.54;61.85;99868.19;3120939;28;20520;-71
2022/05/17 04:21:22;;;;;;;20.65;8.50;;;;;;;17.52;61.99;99864.81;3119968;28;20107;-71
2022/05/17 04:22:54;;;;;;;14.93;9.15;;;;;;;17.56;62.00;99875.97;3121206;28;20438;-73
2022/05/17 04:24:30;;;;;;;20.17;9.68;;;;;;;17.48;62.15;99866.84;3121230;28;20085;-72
2022/05/17 04:26:03;;;;;;;23.10;8.80;;;;;;;17.41;62.16;99846.34;3121307;28;20049;-72
2022/05/17 04:27:35;;;;;;;14.68;8.80;;;;;;;17.38;61.92;99844.75;3121230;28;20057;-72
2022/05/17 04:29:08;;;;;;;16.75;9.10;;;;;;;17.57;61.91;99869.75;3121172;28;20107;-72
2022/05/17 04:30:40;;;;;;;16.23;9.02;;;;;;;17.59;62.12;99868.69;3120982;28;20598;-72
2022/05/17 04:32:12;;;;;;;23.52;9.90;;;;;;;17.63;62.07;99869.28;3121218;28;20523;-72
2022/05/17 04:33:44;;;;;;;11.13;8.77;;;;;;;17.34;61.75;99827.53;3120661;28;20488;-71
2022/05/17 04:35:18;;;;;;;19.10;9.48;;;;;;;17.65;61.77;99870.03;3121126;28;20585;-70
2022/05/17 04:36:50;;;;;;;17.73;9.35;;;;;;;17.69;61.77;99867.06;3120901;28;20049;-71
2022/05/17 04:38:21;;;;;;;12.85;9.75;;;;;;;17.69;61.64;99863.59;3120684;28;20057;-70
2022/05/17 04:39:53;;;;;;;22.05;9.45;;;;;;;17.79;61.46;99869.88;3119972;28;20053;-71
2022/05/17 04:41:27;;;;;;;13.50;8.88;;;;;;;17.62;61.56;99836.84;3120897;28;20064;-71
2022/05/17 04:42:59;;;;;;;18.10;9.18;;;;;;;17.65;61.52;99847.16;3120751;28;20524;-71
2022/05/17 04:44:31;;;;;;;16.00;9.10;;;;;;;17.53;61.35;99827.00;3120857;28;20112;-71
2022/05/17 04:46:03;;;;;;;17.20;8.43;;;;;;;17.79;61.27;99864.63;3120781;28;20127;-71
2022/05/17 04:47:35;;;;;;;15.32;8.70;;;;;;;17.81;61.11;99875.06;3120878;28;20057;-71
2022/05/17 04:49:07;;;;;;;25.35;9.07;;;;;;;17.81;61.27;99870.63;3120911;28;20065;-71
2022/05/17 04:50:40;;;;;;;18.25;9.05;;;;;;;17.83;61.19;99865.22;3114540;28;20144;-71
2022/05/17 04:52:12;;;;;;;16.42;9.38;;;;;;;17.88;61.14;99860.47;3117903;28;20547;-70
2022/05/17 04:53:44;;;;;;;19.23;8.73;;;;;;;17.94;61.06;99866.09;3115634;28;20168;-71
2022/05/17 04:55:18;;;;;;;21.25;9.57;;;;;;;18.00;60.95;99870.06;3115541;28;20061;-71
2022/05/17 04:56:52;;;;;;;18.02;8.38;;;;;;;18.00;60.65;99854.28;3115136;28;20942;-71
2022/05/17 04:58:25;;;;;;;11.93;8.15;;;;;;;18.06;60.49;99863.50;3112777;28;20054;-70
2022/05/17 04:59:59;;;;;;;16.80;8.05;;;;;;;18.09;60.04;99855.38;3115703;28;20521;-72
2022/05/17 05:01:31;;;;;;;;;;;;;;;18.11;59.98;99864.00;3116000;28;20061;-74
2022/05/17 05:03:03;;;;;;;13.55;8.05;;;;;;;18.13;60.10;99859.44;3115544;28;19931;-72
2022/05/17 05:04:35;;;;;;;18.77;8.48;;;;;;;18.17;60.04;99855.63;3112815;28;20080;-73
2022/05/17 05:06:07;;;;;;;14.63;7.60;;;;;;;18.12;59.86;99841.97;3114485;28;20059;-72
2022/05/17 05:07:39;;;;;;;13.55;7.25;;;;;;;17.90;59.49;99805.88;3115575;28;20585;-72
2022/05/17 05:09:11;;;;;;;15.82;8.45;;;;;;;18.31;59.36;99859.84;3115305;28;20068;-73
2022/05/17 05:10:45;;;;;;;11.98;7.90;;;;;;;18.36;59.13;99855.91;3115585;28;20061;-73
2022/05/17 05:12:18;;;;;;;18.73;7.90;;;;;;;18.42;58.83;99857.22;3115228;28;20112;-73
2022/05/17 05:13:50;;;;;;;;;;;;;;;18.47;58.81;99855.09;3115974;28;20156;-73
2022/05/17 05:15:23;;;;;;;18.10;7.50;;;;;;;18.54;58.54;99858.09;3115636;28;19924;-72
2022/05/17 05:16:55;;;;;;;10.63;6.80;;;;;;;18.45;58.22;99830.63;3113653;28;20472;-72
2022/05/17 05:18:27;;;;;;;17.35;7.13;;;;;;;18.66;58.21;99846.56;3115276;28;20053;-73
2022/05/17 05:19:59;;;;;;;31.15;18.20;;;;;;;18.43;58.01;99798.28;3119785;28;20427;-72
2022/05/17 05:21:31;;;;;;;14.30;7.97;;;;;;;18.78;58.00;99840.41;3115223;28;20472;-72
2022/05/17 05:23:03;;;;;;;16.73;8.05;;;;;;;18.96;57.78;99856.56;3115346;28;20046;-72
2022/05/17 05:24:35;;;;;;;10.40;7.23;;;;;;;19.05;57.55;99857.66;3115590;28;20206;-72
2022/05/17 05:26:08;;;;;;;12.65;7.28;;;;;;;19.16;57.31;99860.25;3121307;28;20319;-72
2022/05/17 05:27:42;;;;;;;23.60;7.78;;;;;;;19.22;57.04;99861.56;3125682;28;20888;-72
2022/05/17 05:29:14;;;;;;;15.27;6.65;;;;;;;19.30;56.50;99859.16;3125275;28;20087;-71
2022/05/17 05:30:46;;;;;;;13.38;6.45;;;;;;;19.37;56.16;99872.69;3120937;28;20076;-64
2022/05/17 05:32:18;;;;;;;16.23;7.10;;;;;;;19.46;55.98;99870.16;3115467;28;20073;-64
2022/05/17 05:33:50;;;;;;;20.83;7.45;;;;;;;19.55;55.75;99865.91;3115271;28;20065;-67
2022/05/17 05:35:22;;;;;;;18.17;6.88;;;;;;;19.63;55.45;99867.94;3115564;28;20068;-66
2022/05/17 05:36:54;;;;;;;12.38;6.13;;;;;;;19.67;55.44;99857.03;3115992;28;20064;-72
2022/05/17 05:38:26;;;;;;;13.30;6.60;;;;;;;19.82;55.37;99867.28;3124336;28;20049;-72
2022/05/17 05:39:58;;;;;;;15.68;7.57;;;;;;;19.86;55.02;99860.78;3120689;28;20504;-73
2022/05/17 05:41:30;;;;;;;12.32;6.53;;;;;;;19.68;54.79;99813.78;3119583;28;20048;-76
2022/05/17 05:43:04;;;;;;;11.10;6.10;;;;;;;19.92;54.10;99847.06;3115932;28;20110;-71
2022/05/17 05:44:37;;;;;;;16.92;6.50;;;;;;;20.02;53.41;99853.25;3114961;28;20104;-72
2022/05/17 05:46:09;;;;;;;17.85;5.35;;;;;;;20.17;53.49;99864.34;3115174;28;20156;-70
2022/05/17 05:47:40;;;;;;;11.45;5.88;;;;;;;20.00;53.10;99826.13;3115331;28;20640;-73
2022/05/17 05:49:12;;;;;;;14.40;5.78;;;;;;;20.30;52.73;99861.53;3115243;28;20053;-65
2022/05/17 05:50:47;;;;;;;8.90;5.85;;;;;;;20.07;52.74;99810.56;3115741;28;20053;-69
2022/05/17 05:52:19;;;;;;;18.70;5.57;;;;;;;20.41;52.82;99853.50;3117972;28;20064;-73
2022/05/17 05:53:51;;;;;;;23.23;6.38;;;;;;;20.54;52.88;99864.75;3117470;28;20061;-74
2022/05/17 05:55:22;;;;;;;30.98;21.58;;;;;;;20.55;52.73;99839.94;3117322;28;20534;-78
2022/05/17 05:56:59;;;;;;;22.30;11.73;;;;;;;20.71;52.62;99854.53;3117167;28;20053;-72
2022/05/17 05:58:35;;;;;;;22.15;8.38;;;;;;;20.85;52.43;99856.78;3117762;28;20705;-73
2022/05/17 06:00:09;;;;;;;28.10;16.83;;;;;;;20.91;52.29;99856.25;3117646;28;20053;-73
2022/05/17 06:01:41;;;;;;;17.08;6.97;;;;;;;20.93;51.66;99849.03;3110788;28;20180;-72
2022/05/17 06:03:13;;;;;;;38.95;23.38;;;;;;;21.02;51.94;99853.50;3118128;28;20075;-74
2022/05/17 06:04:45;;;;;;;13.60;7.95;;;;;;;20.98;51.73;99830.09;3117551;28;20503;-70
2022/05/17 06:06:17;;;;;;;14.98;7.78;;;;;;;21.15;51.04;99847.97;3117583;28;20077;-70
2022/05/17 06:07:49;;;;;;;7.50;5.38;;;;;;;21.02;50.87;99821.72;3117352;28;20093;-70
2022/05/17 06:09:21;;;;;;;23.57;7.10;;;;;;;21.29;50.78;99854.69;3120575;28;20510;-70
2022/05/17 06:10:53;;;;;;;8.63;5.63;;;;;;;21.36;50.83;99850.56;3117803;28;20396;-68
2022/05/17 06:12:25;;;;;;;14.48;5.25;;;;;;;21.39;50.19;99855.59;3117152;28;20523;-68
2022/05/17 06:14:00;;;;;;;11.93;5.85;;;;;;;21.45;50.38;99857.69;3117720;28;20087;-68
2022/05/17 06:15:32;;;;;;;16.42;5.45;;;;;;;21.51;50.55;99849.19;3123744;28;20687;-71
2022/05/17 06:17:04;;;;;;;14.70;5.10;;;;;;;21.63;50.34;99849.06;3126355;28;20464;-73
2022/05/17 06:18:36;;;;;;;11.00;5.60;;;;;;;21.67;50.18;99839.84;3117514;28;20064;-71
2022/05/17 06:20:11;;;;;;;8.50;5.25;;;;;;;21.77;49.81;99844.16;3120597;28;20303;-72
2022/05/17 06:21:43;;;;;;;8.30;5.15;;;;;;;21.82;49.53;99841.09;3117500;28;20067;-72
2022/05/17 06:23:15;;;;;;;14.45;5.43;;;;;;;21.92;49.35;99847.22;3117682;28;20593;-71
2022/05/17 06:24:47;;;;;;;13.68;5.72;;;;;;;21.82;49.05;99819.88;3117366;28;20057;-71
2022/05/17 06:26:19;;;;;;;12.57;5.22;;;;;;;22.03;49.00;99855.00;3123830;28;20071;-73
2022/05/17 06:27:52;;;;;;;10.20;5.10;;;;;;;22.10;48.79;99849.16;3126814;28;20418;-72
2022/05/17 06:29:26;;;;;;;11.65;5.15;;;;;;;22.06;48.38;99826.53;3124388;28;20056;-71
2022/05/17 06:30:58;;;;;;;14.20;5.60;;;;;;;22.22;48.50;99856.00;3120454;28;20052;-69
2022/05/17 06:32:30;;;;;;;14.48;5.85;;;;;;;22.28;48.32;99857.25;3122531;28;20593;-71
2022/05/17 06:34:02;;;;;;;14.65;5.43;;;;;;;22.14;48.28;99821.38;3117123;28;20057;-70
2022/05/17 06:35:38;;;;;;;10.07;5.03;;;;;;;22.42;48.38;99846.16;3117304;28;20585;-73
2022/05/17 06:37:10;;;;;;;14.50;6.15;;;;;;;22.42;47.97;99847.03;3117201;28;20136;-70
2022/05/17 06:38:42;;;;;;;10.98;5.32;;;;;;;22.19;47.73;99819.16;3117062;28;20056;-73
2022/05/17 06:40:15;;;;;;;10.60;4.97;;;;;;;22.42;47.60;99844.38;3117423;28;20115;-73
2022/05/17 06:41:47;;;;;;;11.30;4.68;;;;;;;22.48;47.87;99841.16;3116720;28;20618;-72
2022/05/17 06:43:19;;;;;;;8.45;4.78;;;;;;;22.58;47.76;99837.63;3117213;28;20084;-73
2022/05/17 06:44:53;;;;;;;9.50;5.82;;;;;;;22.65;47.61;99831.56;3117440;28;20526;-74
2022/05/17 06:46:25;;;;;;;;;;;;;;;22.73;47.22;99832.66;3111637;28;20049;-76
2022/05/17 06:47:57;;;;;;;12.05;5.55;;;;;;;22.72;47.15;99823.88;3116986;28;20367;-73
2022/05/17 06:49:29;;;;;;;15.23;5.32;;;;;;;22.82;46.83;99829.97;3116619;28;20596;-75
2022/05/17 06:51:21;;;;;;;12.48;5.55;;;;;;;22.77;47.04;99812.78;3121037;28;20057;-76
2022/05/17 06:52:53;;;;;;;17.42;5.43;;;;;;;22.91;47.20;99823.75;3119147;28;20046;-74
2022/05/17 06:54:25;;;;;;;8.43;5.47;;;;;;;22.98;46.67;99832.00;3122909;28;20115;-73
2022/05/17 06:55:58;;;;;;;16.33;5.22;;;;;;;23.06;46.96;99826.78;3128484;28;20053;-77
2022/05/17 06:57:32;;;;;;;11.68;5.38;;;;;;;22.88;46.75;99775.44;3122424;28;20084;-76
2022/05/17 06:59:04;;;;;;;15.52;5.00;;;;;;;23.10;46.86;99790.13;3120405;28;20053;-71
2022/05/17 07:00:38;;;;;;;9.90;4.67;;;;;;;23.44;46.47;99826.69;3117876;28;20586;-73
2022/05/17 07:02:10;;;;;;;14.98;5.53;;;;;;;23.57;45.86;99821.81;3115875;28;20057;-73
2022/05/17 07:03:43;;;;;;;11.40;5.13;;;;;;;23.43;45.80;99780.69;3116400;28;20139;-71
2022/05/17 07:05:16;;;;;;;11.45;5.25;;;;;;;23.66;45.86;99796.97;3114757;28;20341;-68
2022/05/17 07:06:48;;;;;;;11.48;5.68;;;;;;;23.89;45.46;99823.94;3116911;28;20531;-70
2022/05/17 07:08:20;;;;;;;24.02;6.13;;;;;;;23.95;45.05;99825.97;3116446;28;20053;-68
2022/05/17 07:13:31;;;;;;;17.35;4.82;;;;;;;24.18;44.75;99809.53;3116958;28;20053;-69
2022/05/17 07:15:03;;;;;;;12.50;4.18;;;;;;;24.35;44.44;99816.63;3116759;28;20352;-69
2022/05/17 07:16:37;;;;;;;16.92;5.15;;;;;;;24.52;44.07;99809.56;3116750;28;20049;-68
2022/05/17 07:18:10;;;;;;;12.57;5.05;;;;;;;24.53;43.19;99797.94;3116464;28;20455;-68
2022/05/17 07:19:42;;;;;;;16.75;5.75;;;;;;;24.70;43.87;99807.69;3116653;28;20837;-68